sensor_id;sensor_type;location;lat;lon;timestamp;P1;durP1;ratioP1;P2;durP2;ratioP2
57389;SDS011;43217;52.694;6.214;2023-08-21T00:00:00;3.40;;;2.67;;
57389;SDS011;43217;52.694;6.214;2023-08-21T00:02:28;3.58;;;2.85;;
57389;SDS011;43217;52.694;6.214;2023-08-21T00:04:54;4.93;;;3.20;;
57389;SDS011;43217;52.694;6.214;2023-08-21T00:07:20;4.53;;;2.97;;
57389;SDS011;43217;52.694;6.214;2023-08-21T00:09:46;5.55;;;3.38;;
57389;SDS011;43217;52.694;6.214;2023-08-21T00:12:12;5.72;;;3.08;;
57389;SDS011;43217;52.694;6.214;2023-08-21T00:14:37;4.35;;;3.55;;
57389;SDS011;43217;52.694;6.214;2023-08-21T00:17:03;6.25;;;2.95;;
57389;SDS011;43217;52.694;6.214;2023-08-21T00:19:29;3.92;;;2.75;;
57389;SDS011;43217;52.694;6.214;2023-08-21T00:21:55;3.90;;;3.08;;
57389;SDS011;43217;52.694;6.214;2023-08-21T00:24:21;6.05;;;3.40;;
57389;SDS011;43217;52.694;6.214;2023-08-21T00:26:46;4.82;;;2.90;;
57389;SDS011;43217;52.694;6.214;2023-08-21T00:29:12;5.55;;;2.95;;
57389;SDS011;43217;52.694;6.214;2023-08-21T00:31:37;3.53;;;3.13;;
57389;SDS011;43217;52.694;6.214;2023-08-21T00:34:03;4.00;;;3.08;;
57389;SDS011;43217;52.694;6.214;2023-08-21T00:36:29;4.28;;;3.08;;
57389;SDS011;43217;52.694;6.214;2023-08-21T00:38:55;5.38;;;3.60;;
57389;SDS011;43217;52.694;6.214;2023-08-21T00:41:20;4.43;;;3.30;;
57389;SDS011;43217;52.694;6.214;2023-08-21T00:43:46;4.00;;;3.50;;
57389;SDS011;43217;52.694;6.214;2023-08-21T00:46:12;4.28;;;3.60;;
57389;SDS011;43217;52.694;6.214;2023-08-21T00:48:38;4.78;;;3.40;;
57389;SDS011;43217;52.694;6.214;2023-08-21T00:51:04;3.45;;;2.97;;
57389;SDS011;43217;52.694;6.214;2023-08-21T00:53:32;5.88;;;3.00;;
57389;SDS011;43217;52.694;6.214;2023-08-21T00:55:58;6.20;;;3.30;;
57389;SDS011;43217;52.694;6.214;2023-08-21T00:58:24;4.07;;;3.60;;
57389;SDS011;43217;52.694;6.214;2023-08-21T01:00:50;5.55;;;3.45;;
57389;SDS011;43217;52.694;6.214;2023-08-21T01:03:17;3.75;;;2.75;;
57389;SDS011;43217;52.694;6.214;2023-08-21T01:05:43;6.88;;;3.08;;
57389;SDS011;43217;52.694;6.214;2023-08-21T01:14:03;6.22;;;3.47;;
57389;SDS011;43217;52.694;6.214;2023-08-21T01:16:46;4.25;;;2.97;;
57389;SDS011;43217;52.694;6.214;2023-08-21T01:21:49;5.38;;;3.33;;
57389;SDS011;43217;52.694;6.214;2023-08-21T01:24:18;5.97;;;3.45;;
57389;SDS011;43217;52.694;6.214;2023-08-21T01:26:45;4.88;;;3.60;;
57389;SDS011;43217;52.694;6.214;2023-08-21T01:29:10;3.83;;;3.17;;
57389;SDS011;43217;52.694;6.214;2023-08-21T01:31:36;4.00;;;3.40;;
57389;SDS011;43217;52.694;6.214;2023-08-21T01:34:04;5.03;;;3.55;;
57389;SDS011;43217;52.694;6.214;2023-08-21T01:36:33;6.43;;;3.70;;
57389;SDS011;43217;52.694;6.214;2023-08-21T01:38:59;3.90;;;3.05;;
57389;SDS011;43217;52.694;6.214;2023-08-21T01:41:26;5.50;;;3.35;;
57389;SDS011;43217;52.694;6.214;2023-08-21T01:43:52;4.10;;;3.17;;
57389;SDS011;43217;52.694;6.214;2023-08-21T01:46:17;5.63;;;3.67;;
57389;SDS011;43217;52.694;6.214;2023-08-21T01:48:43;4.35;;;2.85;;
57389;SDS011;43217;52.694;6.214;2023-08-21T01:51:08;4.32;;;3.40;;
57389;SDS011;43217;52.694;6.214;2023-08-21T01:53:34;6.35;;;3.47;;
57389;SDS011;43217;52.694;6.214;2023-08-21T01:56:00;4.70;;;3.25;;
57389;SDS011;43217;52.694;6.214;2023-08-21T01:58:25;4.13;;;3.55;;
57389;SDS011;43217;52.694;6.214;2023-08-21T02:00:51;4.13;;;3.25;;
57389;SDS011;43217;52.694;6.214;2023-08-21T02:03:17;4.15;;;3.40;;
57389;SDS011;43217;52.694;6.214;2023-08-21T02:05:42;5.22;;;3.65;;
57389;SDS011;43217;52.694;6.214;2023-08-21T02:08:11;3.92;;;3.45;;
57389;SDS011;43217;52.694;6.214;2023-08-21T02:10:37;4.70;;;3.95;;
57389;SDS011;43217;52.694;6.214;2023-08-21T02:13:03;5.07;;;3.70;;
57389;SDS011;43217;52.694;6.214;2023-08-21T02:15:29;4.65;;;4.07;;
57389;SDS011;43217;52.694;6.214;2023-08-21T02:17:55;4.90;;;3.90;;
57389;SDS011;43217;52.694;6.214;2023-08-21T02:20:21;4.55;;;3.72;;
57389;SDS011;43217;52.694;6.214;2023-08-21T02:22:47;4.22;;;3.83;;
57389;SDS011;43217;52.694;6.214;2023-08-21T02:25:13;4.25;;;3.28;;
57389;SDS011;43217;52.694;6.214;2023-08-21T02:27:38;7.07;;;4.30;;
57389;SDS011;43217;52.694;6.214;2023-08-21T02:30:04;5.57;;;4.30;;
57389;SDS011;43217;52.694;6.214;2023-08-21T02:32:30;5.68;;;4.07;;
57389;SDS011;43217;52.694;6.214;2023-08-21T02:34:55;4.13;;;3.65;;
57389;SDS011;43217;52.694;6.214;2023-08-21T02:37:21;4.47;;;3.90;;
57389;SDS011;43217;52.694;6.214;2023-08-21T02:39:47;4.30;;;3.47;;
57389;SDS011;43217;52.694;6.214;2023-08-21T02:42:13;4.65;;;4.20;;
57389;SDS011;43217;52.694;6.214;2023-08-21T02:44:38;4.90;;;4.38;;
57389;SDS011;43217;52.694;6.214;2023-08-21T02:47:04;4.70;;;4.00;;
57389;SDS011;43217;52.694;6.214;2023-08-21T02:49:29;5.95;;;4.28;;
57389;SDS011;43217;52.694;6.214;2023-08-21T02:51:55;4.95;;;3.78;;
57389;SDS011;43217;52.694;6.214;2023-08-21T02:54:21;4.40;;;3.47;;
57389;SDS011;43217;52.694;6.214;2023-08-21T02:56:46;4.47;;;4.00;;
57389;SDS011;43217;52.694;6.214;2023-08-21T02:59:13;6.38;;;4.22;;
57389;SDS011;43217;52.694;6.214;2023-08-21T03:01:38;4.50;;;4.10;;
57389;SDS011;43217;52.694;6.214;2023-08-21T03:04:04;5.65;;;4.80;;
57389;SDS011;43217;52.694;6.214;2023-08-21T03:06:30;6.10;;;4.78;;
57389;SDS011;43217;52.694;6.214;2023-08-21T03:08:55;4.97;;;4.20;;
57389;SDS011;43217;52.694;6.214;2023-08-21T03:11:21;5.55;;;4.10;;
57389;SDS011;43217;52.694;6.214;2023-08-21T03:13:46;4.57;;;4.13;;
57389;SDS011;43217;52.694;6.214;2023-08-21T03:16:12;5.60;;;4.35;;
57389;SDS011;43217;52.694;6.214;2023-08-21T03:18:53;4.18;;;3.78;;
57389;SDS011;43217;52.694;6.214;2023-08-21T03:21:20;4.13;;;3.72;;
57389;SDS011;43217;52.694;6.214;2023-08-21T03:26:15;3.85;;;3.55;;
57389;SDS011;43217;52.694;6.214;2023-08-21T03:28:43;5.30;;;4.80;;
57389;SDS011;43217;52.694;6.214;2023-08-21T03:31:08;5.05;;;4.55;;
57389;SDS011;43217;52.694;6.214;2023-08-21T03:33:34;8.05;;;4.93;;
57389;SDS011;43217;52.694;6.214;2023-08-21T03:36:00;5.10;;;4.32;;
57389;SDS011;43217;52.694;6.214;2023-08-21T03:38:26;4.90;;;4.50;;
57389;SDS011;43217;52.694;6.214;2023-08-21T03:40:51;4.85;;;3.60;;
57389;SDS011;43217;52.694;6.214;2023-08-21T03:43:17;5.53;;;4.65;;
57389;SDS011;43217;52.694;6.214;2023-08-21T03:45:43;5.95;;;5.00;;
57389;SDS011;43217;52.694;6.214;2023-08-21T03:48:08;4.90;;;4.45;;
57389;SDS011;43217;52.694;6.214;2023-08-21T03:50:34;6.30;;;3.97;;
57389;SDS011;43217;52.694;6.214;2023-08-21T03:52:59;4.30;;;4.00;;
57389;SDS011;43217;52.694;6.214;2023-08-21T03:55:25;4.43;;;3.72;;
57389;SDS011;43217;52.694;6.214;2023-08-21T03:57:51;4.40;;;4.00;;
57389;SDS011;43217;52.694;6.214;2023-08-21T04:00:16;5.15;;;4.10;;
57389;SDS011;43217;52.694;6.214;2023-08-21T04:02:42;5.68;;;4.00;;
57389;SDS011;43217;52.694;6.214;2023-08-21T04:05:07;5.75;;;4.20;;
57389;SDS011;43217;52.694;6.214;2023-08-21T04:07:35;5.00;;;4.60;;
57389;SDS011;43217;52.694;6.214;2023-08-21T04:10:01;4.78;;;4.20;;
57389;SDS011;43217;52.694;6.214;2023-08-21T04:12:27;6.60;;;4.60;;
57389;SDS011;43217;52.694;6.214;2023-08-21T04:14:52;8.35;;;6.47;;
57389;SDS011;43217;52.694;6.214;2023-08-21T04:17:21;5.63;;;4.97;;
57389;SDS011;43217;52.694;6.214;2023-08-21T04:19:49;5.18;;;4.78;;
57389;SDS011;43217;52.694;6.214;2023-08-21T04:22:15;5.43;;;4.93;;
57389;SDS011;43217;52.694;6.214;2023-08-21T04:24:41;5.47;;;4.70;;
57389;SDS011;43217;52.694;6.214;2023-08-21T04:27:07;5.30;;;4.70;;
57389;SDS011;43217;52.694;6.214;2023-08-21T04:29:34;4.78;;;4.35;;
57389;SDS011;43217;52.694;6.214;2023-08-21T04:32:00;4.93;;;4.43;;
57389;SDS011;43217;52.694;6.214;2023-08-21T04:34:26;4.38;;;3.97;;
57389;SDS011;43217;52.694;6.214;2023-08-21T04:36:52;5.28;;;3.88;;
57389;SDS011;43217;52.694;6.214;2023-08-21T04:39:17;4.45;;;4.05;;
57389;SDS011;43217;52.694;6.214;2023-08-21T04:41:43;4.80;;;4.30;;
57389;SDS011;43217;52.694;6.214;2023-08-21T04:44:09;4.43;;;4.03;;
57389;SDS011;43217;52.694;6.214;2023-08-21T04:46:34;4.43;;;3.85;;
57389;SDS011;43217;52.694;6.214;2023-08-21T04:49:00;4.30;;;4.00;;
57389;SDS011;43217;52.694;6.214;2023-08-21T04:51:26;3.58;;;3.30;;
57389;SDS011;43217;52.694;6.214;2023-08-21T04:53:51;3.22;;;3.00;;
57389;SDS011;43217;52.694;6.214;2023-08-21T04:56:17;3.80;;;3.50;;
57389;SDS011;43217;52.694;6.214;2023-08-21T04:58:43;4.35;;;3.58;;
57389;SDS011;43217;52.694;6.214;2023-08-21T05:01:08;4.03;;;3.40;;
57389;SDS011;43217;52.694;6.214;2023-08-21T05:03:34;4.57;;;3.40;;
57389;SDS011;43217;52.694;6.214;2023-08-21T05:06:00;5.28;;;3.40;;
57389;SDS011;43217;52.694;6.214;2023-08-21T05:08:25;4.10;;;3.70;;
57389;SDS011;43217;52.694;6.214;2023-08-21T05:10:55;4.72;;;3.42;;
57389;SDS011;43217;52.694;6.214;2023-08-21T05:13:24;3.80;;;3.50;;
57389;SDS011;43217;52.694;6.214;2023-08-21T05:15:54;3.60;;;3.30;;
57389;SDS011;43217;52.694;6.214;2023-08-21T05:18:21;4.07;;;2.95;;
57389;SDS011;43217;52.694;6.214;2023-08-21T05:20:48;4.28;;;3.33;;
57389;SDS011;43217;52.694;6.214;2023-08-21T05:23:14;3.33;;;3.10;;
57389;SDS011;43217;52.694;6.214;2023-08-21T05:25:40;3.00;;;2.78;;
57389;SDS011;43217;52.694;6.214;2023-08-21T05:28:06;3.92;;;3.00;;
57389;SDS011;43217;52.694;6.214;2023-08-21T05:30:32;5.25;;;3.38;;
57389;SDS011;43217;52.694;6.214;2023-08-21T05:32:58;4.10;;;3.40;;
57389;SDS011;43217;52.694;6.214;2023-08-21T05:35:23;3.70;;;3.40;;
57389;SDS011;43217;52.694;6.214;2023-08-21T05:37:49;3.45;;;3.20;;
57389;SDS011;43217;52.694;6.214;2023-08-21T05:40:14;4.30;;;3.63;;
57389;SDS011;43217;52.694;6.214;2023-08-21T05:42:40;4.22;;;3.50;;
57389;SDS011;43217;52.694;6.214;2023-08-21T05:45:06;3.47;;;3.17;;
57389;SDS011;43217;52.694;6.214;2023-08-21T05:47:32;3.67;;;3.38;;
57389;SDS011;43217;52.694;6.214;2023-08-21T05:49:57;3.67;;;3.15;;
57389;SDS011;43217;52.694;6.214;2023-08-21T05:52:23;3.78;;;3.30;;
57389;SDS011;43217;52.694;6.214;2023-08-21T05:54:49;3.92;;;3.53;;
57389;SDS011;43217;52.694;6.214;2023-08-21T05:57:15;5.00;;;4.30;;
57389;SDS011;43217;52.694;6.214;2023-08-21T05:59:44;7.05;;;5.38;;
57389;SDS011;43217;52.694;6.214;2023-08-21T06:02:11;6.82;;;5.80;;
57389;SDS011;43217;52.694;6.214;2023-08-21T06:04:41;5.43;;;4.93;;
57389;SDS011;43217;52.694;6.214;2023-08-21T06:07:08;5.28;;;4.40;;
57389;SDS011;43217;52.694;6.214;2023-08-21T06:09:41;6.03;;;4.78;;
57389;SDS011;43217;52.694;6.214;2023-08-21T06:12:07;5.32;;;4.55;;
57389;SDS011;43217;52.694;6.214;2023-08-21T06:14:33;7.68;;;6.53;;
57389;SDS011;43217;52.694;6.214;2023-08-21T06:17:01;8.40;;;6.18;;
57389;SDS011;43217;52.694;6.214;2023-08-21T06:19:28;7.03;;;5.50;;
57389;SDS011;43217;52.694;6.214;2023-08-21T06:21:54;6.25;;;5.18;;
57389;SDS011;43217;52.694;6.214;2023-08-21T06:24:20;5.55;;;4.38;;
57389;SDS011;43217;52.694;6.214;2023-08-21T06:26:48;8.25;;;4.90;;
57389;SDS011;43217;52.694;6.214;2023-08-21T06:29:13;6.43;;;4.28;;
57389;SDS011;43217;52.694;6.214;2023-08-21T06:31:39;6.90;;;4.00;;
57389;SDS011;43217;52.694;6.214;2023-08-21T06:34:05;6.07;;;3.60;;
57389;SDS011;43217;52.694;6.214;2023-08-21T06:36:31;7.80;;;3.83;;
57389;SDS011;43217;52.694;6.214;2023-08-21T06:38:56;4.68;;;3.58;;
57389;SDS011;43217;52.694;6.214;2023-08-21T06:41:22;6.22;;;3.63;;
57389;SDS011;43217;52.694;6.214;2023-08-21T06:43:49;6.80;;;3.95;;
57389;SDS011;43217;52.694;6.214;2023-08-21T06:46:15;5.40;;;3.20;;
57389;SDS011;43217;52.694;6.214;2023-08-21T06:48:40;5.38;;;3.78;;
57389;SDS011;43217;52.694;6.214;2023-08-21T06:51:07;4.50;;;3.13;;
57389;SDS011;43217;52.694;6.214;2023-08-21T06:53:32;6.80;;;3.08;;
57389;SDS011;43217;52.694;6.214;2023-08-21T06:55:59;4.63;;;3.00;;
57389;SDS011;43217;52.694;6.214;2023-08-21T06:58:25;4.35;;;2.85;;
57389;SDS011;43217;52.694;6.214;2023-08-21T07:00:50;5.35;;;2.65;;
57389;SDS011;43217;52.694;6.214;2023-08-21T07:03:18;5.65;;;2.67;;
57389;SDS011;43217;52.694;6.214;2023-08-21T07:05:46;4.90;;;2.95;;
57389;SDS011;43217;52.694;6.214;2023-08-21T07:08:18;5.97;;;2.63;;
57389;SDS011;43217;52.694;6.214;2023-08-21T07:10:43;5.40;;;2.80;;
57389;SDS011;43217;52.694;6.214;2023-08-21T07:13:09;5.28;;;2.95;;
57389;SDS011;43217;52.694;6.214;2023-08-21T07:15:35;4.80;;;2.42;;
57389;SDS011;43217;52.694;6.214;2023-08-21T07:18:00;3.65;;;2.65;;
57389;SDS011;43217;52.694;6.214;2023-08-21T07:20:26;3.55;;;2.35;;
57389;SDS011;43217;52.694;6.214;2023-08-21T07:22:52;4.07;;;2.30;;
57389;SDS011;43217;52.694;6.214;2023-08-21T07:25:17;4.65;;;2.17;;
57389;SDS011;43217;52.694;6.214;2023-08-21T07:27:43;5.45;;;2.65;;
57389;SDS011;43217;52.694;6.214;2023-08-21T07:30:09;5.00;;;2.28;;
57389;SDS011;43217;52.694;6.214;2023-08-21T07:32:35;2.50;;;1.70;;
57389;SDS011;43217;52.694;6.214;2023-08-21T07:35:01;4.82;;;2.33;;
57389;SDS011;43217;52.694;6.214;2023-08-21T07:37:27;3.73;;;1.70;;
57389;SDS011;43217;52.694;6.214;2023-08-21T07:39:52;3.37;;;1.67;;
57389;SDS011;43217;52.694;6.214;2023-08-21T07:42:22;3.75;;;1.70;;
57389;SDS011;43217;52.694;6.214;2023-08-21T07:44:47;4.90;;;1.87;;
57389;SDS011;43217;52.694;6.214;2023-08-21T07:47:13;4.73;;;2.20;;
57389;SDS011;43217;52.694;6.214;2023-08-21T07:49:38;3.37;;;1.63;;
57389;SDS011;43217;52.694;6.214;2023-08-21T07:52:04;3.17;;;1.73;;
57389;SDS011;43217;52.694;6.214;2023-08-21T07:54:30;4.73;;;2.00;;
57389;SDS011;43217;52.694;6.214;2023-08-21T07:56:56;6.03;;;2.80;;
57389;SDS011;43217;52.694;6.214;2023-08-21T07:59:21;3.57;;;1.93;;
57389;SDS011;43217;52.694;6.214;2023-08-21T08:01:47;6.23;;;2.03;;
57389;SDS011;43217;52.694;6.214;2023-08-21T08:04:13;5.50;;;2.50;;
57389;SDS011;43217;52.694;6.214;2023-08-21T08:06:38;5.43;;;2.87;;
57389;SDS011;43217;52.694;6.214;2023-08-21T08:09:04;5.93;;;3.13;;
57389;SDS011;43217;52.694;6.214;2023-08-21T08:11:30;5.30;;;2.67;;
57389;SDS011;43217;52.694;6.214;2023-08-21T08:13:55;4.20;;;2.93;;
57389;SDS011;43217;52.694;6.214;2023-08-21T08:16:21;4.17;;;2.10;;
57389;SDS011;43217;52.694;6.214;2023-08-21T08:18:47;4.83;;;2.57;;
57389;SDS011;43217;52.694;6.214;2023-08-21T08:21:13;5.40;;;2.58;;
57389;SDS011;43217;52.694;6.214;2023-08-21T08:23:39;5.93;;;2.17;;
57389;SDS011;43217;52.694;6.214;2023-08-21T08:26:05;5.13;;;2.17;;
57389;SDS011;43217;52.694;6.214;2023-08-21T08:28:30;5.80;;;1.80;;
57389;SDS011;43217;52.694;6.214;2023-08-21T08:30:57;3.33;;;1.87;;
57389;SDS011;43217;52.694;6.214;2023-08-21T08:35:48;3.53;;;2.27;;
57389;SDS011;43217;52.694;6.214;2023-08-21T08:38:14;4.23;;;2.40;;
57389;SDS011;43217;52.694;6.214;2023-08-21T08:40:44;4.87;;;2.27;;
57389;SDS011;43217;52.694;6.214;2023-08-21T08:43:12;3.75;;;2.15;;
57389;SDS011;43217;52.694;6.214;2023-08-21T08:45:38;5.90;;;2.63;;
57389;SDS011;43217;52.694;6.214;2023-08-21T08:48:06;5.20;;;2.00;;
57389;SDS011;43217;52.694;6.214;2023-08-21T08:50:33;3.75;;;1.58;;
57389;SDS011;43217;52.694;6.214;2023-08-21T08:52:59;4.05;;;1.80;;
57389;SDS011;43217;52.694;6.214;2023-08-21T08:55:26;3.47;;;2.10;;
57389;SDS011;43217;52.694;6.214;2023-08-21T08:57:52;3.30;;;1.80;;
57389;SDS011;43217;52.694;6.214;2023-08-21T09:02:47;4.65;;;2.55;;
57389;SDS011;43217;52.694;6.214;2023-08-21T09:05:13;4.85;;;2.42;;
57389;SDS011;43217;52.694;6.214;2023-08-21T09:07:39;6.97;;;2.00;;
57389;SDS011;43217;52.694;6.214;2023-08-21T09:10:11;3.53;;;1.80;;
57389;SDS011;43217;52.694;6.214;2023-08-21T09:12:39;2.38;;;1.20;;
57389;SDS011;43217;52.694;6.214;2023-08-21T09:15:08;4.43;;;1.30;;
57389;SDS011;43217;52.694;6.214;2023-08-21T09:17:34;3.20;;;1.20;;
57389;SDS011;43217;52.694;6.214;2023-08-21T09:20:06;3.35;;;1.40;;
57389;SDS011;43217;52.694;6.214;2023-08-21T09:22:33;4.38;;;1.65;;
57389;SDS011;43217;52.694;6.214;2023-08-21T09:24:59;5.07;;;1.70;;
57389;SDS011;43217;52.694;6.214;2023-08-21T09:29:51;4.18;;;1.83;;
57389;SDS011;43217;52.694;6.214;2023-08-21T09:32:16;2.23;;;1.60;;
57389;SDS011;43217;52.694;6.214;2023-08-21T09:34:42;5.43;;;1.90;;
57389;SDS011;43217;52.694;6.214;2023-08-21T09:37:08;5.50;;;1.77;;
57389;SDS011;43217;52.694;6.214;2023-08-21T09:39:35;3.85;;;2.13;;
57389;SDS011;43217;52.694;6.214;2023-08-21T09:44:37;6.05;;;2.97;;
57389;SDS011;43217;52.694;6.214;2023-08-21T09:47:06;5.70;;;2.38;;
57389;SDS011;43217;52.694;6.214;2023-08-21T09:49:34;7.15;;;3.13;;
57389;SDS011;43217;52.694;6.214;2023-08-21T09:52:02;6.88;;;2.50;;
57389;SDS011;43217;52.694;6.214;2023-08-21T09:54:38;5.25;;;2.53;;
57389;SDS011;43217;52.694;6.214;2023-08-21T09:57:04;3.88;;;1.73;;
57389;SDS011;43217;52.694;6.214;2023-08-21T09:59:31;4.40;;;1.60;;
57389;SDS011;43217;52.694;6.214;2023-08-21T10:01:58;6.75;;;1.80;;
57389;SDS011;43217;52.694;6.214;2023-08-21T10:04:25;4.15;;;1.58;;
57389;SDS011;43217;52.694;6.214;2023-08-21T10:06:52;3.97;;;1.30;;
57389;SDS011;43217;52.694;6.214;2023-08-21T10:09:20;3.95;;;1.67;;
57389;SDS011;43217;52.694;6.214;2023-08-21T10:11:48;3.45;;;1.60;;
57389;SDS011;43217;52.694;6.214;2023-08-21T10:14:14;4.90;;;1.65;;
57389;SDS011;43217;52.694;6.214;2023-08-21T10:16:41;3.90;;;1.63;;
57389;SDS011;43217;52.694;6.214;2023-08-21T10:19:07;3.90;;;1.73;;
57389;SDS011;43217;52.694;6.214;2023-08-21T10:21:35;5.47;;;1.90;;
57389;SDS011;43217;52.694;6.214;2023-08-21T10:24:02;3.60;;;1.25;;
57389;SDS011;43217;52.694;6.214;2023-08-21T10:26:28;4.50;;;1.50;;
57389;SDS011;43217;52.694;6.214;2023-08-21T10:28:54;2.97;;;1.25;;
57389;SDS011;43217;52.694;6.214;2023-08-21T10:31:39;3.25;;;1.50;;
57389;SDS011;43217;52.694;6.214;2023-08-21T10:34:09;5.70;;;1.90;;
57389;SDS011;43217;52.694;6.214;2023-08-21T10:36:39;3.88;;;1.52;;
57389;SDS011;43217;52.694;6.214;2023-08-21T10:39:26;3.75;;;1.35;;
57389;SDS011;43217;52.694;6.214;2023-08-21T10:41:55;4.00;;;1.20;;
57389;SDS011;43217;52.694;6.214;2023-08-21T10:49:52;3.00;;;1.25;;
57389;SDS011;43217;52.694;6.214;2023-08-21T10:52:29;2.72;;;1.42;;
57389;SDS011;43217;52.694;6.214;2023-08-21T10:54:59;2.83;;;1.20;;
57389;SDS011;43217;52.694;6.214;2023-08-21T10:57:27;3.53;;;1.50;;
57389;SDS011;43217;52.694;6.214;2023-08-21T10:59:59;2.80;;;1.13;;
57389;SDS011;43217;52.694;6.214;2023-08-21T11:02:31;3.33;;;1.10;;
57389;SDS011;43217;52.694;6.214;2023-08-21T11:04:58;3.65;;;1.23;;
57389;SDS011;43217;52.694;6.214;2023-08-21T11:07:25;2.85;;;1.27;;
57389;SDS011;43217;52.694;6.214;2023-08-21T11:09:52;3.38;;;1.30;;
57389;SDS011;43217;52.694;6.214;2023-08-21T11:12:18;3.60;;;1.40;;
57389;SDS011;43217;52.694;6.214;2023-08-21T11:14:45;3.58;;;1.10;;
57389;SDS011;43217;52.694;6.214;2023-08-21T11:17:11;2.80;;;1.07;;
57389;SDS011;43217;52.694;6.214;2023-08-21T11:19:38;4.43;;;1.30;;
57389;SDS011;43217;52.694;6.214;2023-08-21T11:22:04;6.50;;;1.70;;
57389;SDS011;43217;52.694;6.214;2023-08-21T11:27:02;2.92;;;1.15;;
57389;SDS011;43217;52.694;6.214;2023-08-21T11:29:42;2.50;;;1.20;;
57389;SDS011;43217;52.694;6.214;2023-08-21T11:32:12;5.68;;;1.80;;
57389;SDS011;43217;52.694;6.214;2023-08-21T11:34:56;3.40;;;1.38;;
57389;SDS011;43217;52.694;6.214;2023-08-21T11:37:23;3.63;;;1.35;;
57389;SDS011;43217;52.694;6.214;2023-08-21T11:39:52;3.65;;;1.33;;
57389;SDS011;43217;52.694;6.214;2023-08-21T11:42:20;3.20;;;1.23;;
57389;SDS011;43217;52.694;6.214;2023-08-21T11:44:48;5.65;;;1.50;;
57389;SDS011;43217;52.694;6.214;2023-08-21T11:47:16;5.10;;;1.40;;
57389;SDS011;43217;52.694;6.214;2023-08-21T11:49:44;4.25;;;1.40;;
57389;SDS011;43217;52.694;6.214;2023-08-21T11:52:12;4.53;;;1.55;;
57389;SDS011;43217;52.694;6.214;2023-08-21T11:54:39;3.90;;;1.15;;
57389;SDS011;43217;52.694;6.214;2023-08-21T11:57:06;3.50;;;1.27;;
57389;SDS011;43217;52.694;6.214;2023-08-21T11:59:33;3.95;;;1.20;;
57389;SDS011;43217;52.694;6.214;2023-08-21T12:01:59;3.70;;;1.23;;
57389;SDS011;43217;52.694;6.214;2023-08-21T12:04:25;3.70;;;1.30;;
57389;SDS011;43217;52.694;6.214;2023-08-21T12:06:52;3.73;;;1.30;;
57389;SDS011;43217;52.694;6.214;2023-08-21T12:09:18;1.88;;;1.00;;
57389;SDS011;43217;52.694;6.214;2023-08-21T12:11:44;5.88;;;1.10;;
57389;SDS011;43217;52.694;6.214;2023-08-21T12:14:11;1.73;;;0.90;;
57389;SDS011;43217;52.694;6.214;2023-08-21T12:16:37;2.53;;;1.10;;
57389;SDS011;43217;52.694;6.214;2023-08-21T12:19:03;2.60;;;1.20;;
57389;SDS011;43217;52.694;6.214;2023-08-21T12:21:28;2.83;;;1.00;;
57389;SDS011;43217;52.694;6.214;2023-08-21T12:23:54;3.43;;;1.00;;
57389;SDS011;43217;52.694;6.214;2023-08-21T12:26:20;3.80;;;1.10;;
57389;SDS011;43217;52.694;6.214;2023-08-21T12:28:46;3.17;;;1.25;;
57389;SDS011;43217;52.694;6.214;2023-08-21T12:31:12;4.90;;;1.70;;
57389;SDS011;43217;52.694;6.214;2023-08-21T12:33:38;3.30;;;1.40;;
57389;SDS011;43217;52.694;6.214;2023-08-21T12:36:04;2.97;;;1.00;;
57389;SDS011;43217;52.694;6.214;2023-08-21T12:38:29;2.58;;;0.98;;
57389;SDS011;43217;52.694;6.214;2023-08-21T12:40:55;2.60;;;1.20;;
57389;SDS011;43217;52.694;6.214;2023-08-21T12:43:21;1.92;;;0.90;;
57389;SDS011;43217;52.694;6.214;2023-08-21T12:45:46;1.13;;;0.70;;
57389;SDS011;43217;52.694;6.214;2023-08-21T12:48:13;6.40;;;1.48;;
57389;SDS011;43217;52.694;6.214;2023-08-21T12:50:38;3.90;;;1.30;;
57389;SDS011;43217;52.694;6.214;2023-08-21T12:53:04;4.30;;;1.80;;
57389;SDS011;43217;52.694;6.214;2023-08-21T12:55:30;3.03;;;1.40;;
57389;SDS011;43217;52.694;6.214;2023-08-21T12:57:56;1.52;;;1.10;;
57389;SDS011;43217;52.694;6.214;2023-08-21T13:00:22;2.10;;;1.27;;
57389;SDS011;43217;52.694;6.214;2023-08-21T13:02:48;2.17;;;1.23;;
57389;SDS011;43217;52.694;6.214;2023-08-21T13:05:14;2.83;;;1.50;;
57389;SDS011;43217;52.694;6.214;2023-08-21T13:07:40;3.55;;;1.38;;
57389;SDS011;43217;52.694;6.214;2023-08-21T13:10:07;2.40;;;1.20;;
57389;SDS011;43217;52.694;6.214;2023-08-21T13:12:33;5.47;;;1.50;;
57389;SDS011;43217;52.694;6.214;2023-08-21T13:14:59;2.92;;;1.10;;
57389;SDS011;43217;52.694;6.214;2023-08-21T13:17:26;3.90;;;1.55;;
57389;SDS011;43217;52.694;6.214;2023-08-21T13:19:52;1.57;;;1.17;;
57389;SDS011;43217;52.694;6.214;2023-08-21T13:22:18;3.73;;;1.40;;
57389;SDS011;43217;52.694;6.214;2023-08-21T13:24:43;2.88;;;1.25;;
57389;SDS011;43217;52.694;6.214;2023-08-21T13:27:09;2.60;;;1.30;;
57389;SDS011;43217;52.694;6.214;2023-08-21T13:29:35;4.60;;;1.58;;
57389;SDS011;43217;52.694;6.214;2023-08-21T13:32:01;3.15;;;1.08;;
57389;SDS011;43217;52.694;6.214;2023-08-21T13:34:27;2.42;;;1.05;;
57389;SDS011;43217;52.694;6.214;2023-08-21T13:36:53;3.17;;;1.20;;
57389;SDS011;43217;52.694;6.214;2023-08-21T13:39:18;4.00;;;1.47;;
57389;SDS011;43217;52.694;6.214;2023-08-21T13:41:44;3.78;;;1.42;;
57389;SDS011;43217;52.694;6.214;2023-08-21T13:44:10;3.13;;;1.47;;
57389;SDS011;43217;52.694;6.214;2023-08-21T13:46:35;3.73;;;1.43;;
57389;SDS011;43217;52.694;6.214;2023-08-21T13:49:01;2.53;;;1.17;;
57389;SDS011;43217;52.694;6.214;2023-08-21T13:51:27;4.00;;;1.20;;
57389;SDS011;43217;52.694;6.214;2023-08-21T13:53:53;3.30;;;1.40;;
57389;SDS011;43217;52.694;6.214;2023-08-21T13:56:18;5.13;;;1.43;;
57389;SDS011;43217;52.694;6.214;2023-08-21T13:58:44;2.63;;;1.43;;
57389;SDS011;43217;52.694;6.214;2023-08-21T14:01:10;2.72;;;1.38;;
57389;SDS011;43217;52.694;6.214;2023-08-21T14:03:36;2.77;;;1.30;;
57389;SDS011;43217;52.694;6.214;2023-08-21T14:06:02;4.07;;;1.80;;
57389;SDS011;43217;52.694;6.214;2023-08-21T14:08:28;1.43;;;0.80;;
57389;SDS011;43217;52.694;6.214;2023-08-21T14:10:54;4.07;;;1.20;;
57389;SDS011;43217;52.694;6.214;2023-08-21T14:13:20;2.63;;;1.20;;
57389;SDS011;43217;52.694;6.214;2023-08-21T14:15:46;3.55;;;1.40;;
57389;SDS011;43217;52.694;6.214;2023-08-21T14:18:12;3.00;;;1.03;;
57389;SDS011;43217;52.694;6.214;2023-08-21T14:20:37;4.63;;;1.50;;
57389;SDS011;43217;52.694;6.214;2023-08-21T14:23:04;2.80;;;1.20;;
57389;SDS011;43217;52.694;6.214;2023-08-21T14:25:29;2.83;;;1.27;;
57389;SDS011;43217;52.694;6.214;2023-08-21T14:27:56;3.00;;;1.15;;
57389;SDS011;43217;52.694;6.214;2023-08-21T14:30:22;2.35;;;1.10;;
57389;SDS011;43217;52.694;6.214;2023-08-21T14:32:47;3.97;;;1.60;;
57389;SDS011;43217;52.694;6.214;2023-08-21T14:35:13;2.63;;;1.45;;
57389;SDS011;43217;52.694;6.214;2023-08-21T14:37:39;3.70;;;1.10;;
57389;SDS011;43217;52.694;6.214;2023-08-21T14:40:05;2.15;;;0.90;;
57389;SDS011;43217;52.694;6.214;2023-08-21T14:42:34;2.83;;;1.00;;
57389;SDS011;43217;52.694;6.214;2023-08-21T14:44:59;1.60;;;0.93;;
57389;SDS011;43217;52.694;6.214;2023-08-21T14:47:25;1.83;;;1.02;;
57389;SDS011;43217;52.694;6.214;2023-08-21T14:49:50;4.03;;;1.00;;
57389;SDS011;43217;52.694;6.214;2023-08-21T14:52:16;2.40;;;0.80;;
57389;SDS011;43217;52.694;6.214;2023-08-21T14:54:42;0.97;;;0.70;;
57389;SDS011;43217;52.694;6.214;2023-08-21T14:57:08;2.50;;;0.80;;
57389;SDS011;43217;52.694;6.214;2023-08-21T14:59:33;1.03;;;0.70;;
57389;SDS011;43217;52.694;6.214;2023-08-21T15:01:59;2.15;;;0.88;;
57389;SDS011;43217;52.694;6.214;2023-08-21T15:04:25;2.45;;;0.80;;
57389;SDS011;43217;52.694;6.214;2023-08-21T15:06:50;1.33;;;0.50;;
57389;SDS011;43217;52.694;6.214;2023-08-21T15:09:16;1.73;;;0.67;;
57389;SDS011;43217;52.694;6.214;2023-08-21T15:11:42;1.85;;;1.00;;